»·PEaware :: WAT234 KLAS-KBUR

WAT234 :: KLAS-KBUR

FLIGHT INFORMATION

Flight Status: Arrived
Operator:
Walker Air Transport
More flights by this operator :: More flights under this callsign
Pilot: Eduardo Elias G. (24838)
Aircraft: BOEING 737-800
(B738)
More flights by this aircraft type
Origin: KLAS McCarran Intl
United States
Destination: KBUR Bob Hope-Burbank
United States
More flights between these airports :: More routes between these airports
Route: BOACH8 WHIGG KREME JANNY5
File this flight plan on PilotEdge
Remarks:
Altitude:
(Current/Filed)
28,000ft
Speed:
(Current/Filed)
449kts
Departed: 16-Sep-20 08:32 PM
Arrived: 16-Sep-20 09:20 PM
Distance/Time
Traveled:
193nm/0:47
Distance/Time
To Go:
Arrived

Flight Plot

Page will automatically refresh every two minutes.

Flight plan parsing failed; only flown route is shown


Map Options




Map Legend


Flown Route
Filed Route
Departure Airport
Arrival Airport
Navaid (VOR, NDB)
Fix

Horizontal Profiles

Position Reports

Time Latitude Longitude Heading Altitude Ground
Speed
16-Sep-20 19:55 36.080247 -115.147307 58 2189ft 0kts
16-Sep-20 19:56 36.080247 -115.147307 58 2189ft 0kts
16-Sep-20 19:57 36.080247 -115.147307 58 2189ft 0kts
16-Sep-20 19:58 36.080247 -115.147307 58 2189ft 0kts
16-Sep-20 19:59 36.080247 -115.147307 58 2189ft 0kts
16-Sep-20 20:00 36.080247 -115.147307 58 2189ft 0kts
16-Sep-20 20:01 36.080247 -115.147307 58 2189ft 0kts
16-Sep-20 20:02 36.080247 -115.147307 58 2189ft 0kts
16-Sep-20 20:03 36.080247 -115.147307 58 2189ft 0kts
16-Sep-20 20:04 36.080247 -115.147307 58 2189ft 0kts
16-Sep-20 20:05 36.080247 -115.147307 58 2189ft 0kts
16-Sep-20 20:06 36.080247 -115.147307 58 2189ft 0kts
16-Sep-20 20:07 36.080247 -115.147307 58 2189ft 0kts
16-Sep-20 20:08 36.080247 -115.147307 58 2189ft 0kts
16-Sep-20 20:09 36.080247 -115.147307 58 2189ft 0kts
16-Sep-20 20:10 36.080247 -115.147307 58 2189ft 0kts
16-Sep-20 20:11 36.080247 -115.147307 58 2189ft 0kts
16-Sep-20 20:12 36.080247 -115.147307 58 2189ft 0kts
16-Sep-20 20:13 36.080247 -115.147307 58 2189ft 0kts
16-Sep-20 20:14 36.080240 -115.147321 58 2189ft 1kts
16-Sep-20 20:15 36.080271 -115.148059 155 2189ft 1kts
16-Sep-20 20:16 36.080395 -115.148130 155 2189ft 0kts
16-Sep-20 20:17 36.080395 -115.148130 155 2189ft 0kts
16-Sep-20 20:18 36.080394 -115.148130 155 2189ft 0kts
16-Sep-20 20:19 36.080394 -115.148130 155 2189ft 0kts
16-Sep-20 20:20 36.080394 -115.148130 155 2189ft 0kts
16-Sep-20 20:21 36.079795 -115.147787 155 2189ft 4kts
16-Sep-20 20:22 36.078582 -115.147013 127 2189ft 8kts
16-Sep-20 20:23 36.078267 -115.142698 89 2189ft 15kts
16-Sep-20 20:24 36.078271 -115.136763 90 2189ft 19kts
16-Sep-20 20:25 36.078268 -115.130642 90 2189ft 15kts
16-Sep-20 20:26 36.078282 -115.125803 89 2189ft 12kts
16-Sep-20 20:27 36.077828 -115.121964 128 2189ft 10kts
16-Sep-20 20:28 36.077550 -115.121546 132 2189ft 0kts
16-Sep-20 20:29 36.077549 -115.121545 132 2189ft 0kts
16-Sep-20 20:30 36.076434 -115.121969 270 2189ft 0kts
16-Sep-20 20:31 36.076423 -115.130771 268 2189ft 110kts
16-Sep-20 20:32 36.077337 -115.186133 272 4130ft 167kts
16-Sep-20 20:33 36.071725 -115.254851 236 5277ft 247kts
16-Sep-20 20:34 36.003434 -115.285407 200 7836ft 279kts
16-Sep-20 20:35 35.926365 -115.307446 185 10713ft 293kts
16-Sep-20 20:37 35.836563 -115.313997 174 12111ft 356kts
16-Sep-20 20:38 35.738358 -115.301509 173 14839ft 364kts
16-Sep-20 20:39 35.647160 -115.333605 224 17897ft 361kts
16-Sep-20 20:40 35.579487 -115.427843 228 20301ft 370kts
16-Sep-20 20:41 35.509409 -115.522075 228 22338ft 378kts
16-Sep-20 20:42 35.433234 -115.613424 224 24007ft 387kts
16-Sep-20 20:43 35.354753 -115.705597 225 25561ft 393kts
16-Sep-20 20:44 35.275309 -115.799223 225 26984ft 399kts
16-Sep-20 20:45 35.194875 -115.894578 226 28041ft 408kts
16-Sep-20 20:46 35.113201 -115.991072 226 28046ft 416kts
16-Sep-20 20:47 35.026919 -116.092110 225 28048ft 440kts
16-Sep-20 20:48 34.939262 -116.195974 230 28054ft 438kts
16-Sep-20 20:49 34.881133 -116.315802 245 27467ft 391kts
16-Sep-20 20:50 34.837004 -116.429667 245 26207ft 359kts
16-Sep-20 20:51 34.794904 -116.538988 249 24219ft 354kts
16-Sep-20 20:52 34.777830 -116.655204 263 22359ft 346kts
16-Sep-20 20:53 34.766840 -116.769761 263 21275ft 342kts
16-Sep-20 20:53 34.757471 -116.864877 263 20192ft 336kts
16-Sep-20 20:54 34.746034 -116.977185 262 18887ft 331kts
16-Sep-20 20:56 34.733185 -117.105352 263 17433ft 324kts
16-Sep-20 20:56 34.724090 -117.195518 262 16366ft 321kts
16-Sep-20 20:57 34.712892 -117.302586 262 15132ft 317kts
16-Sep-20 20:59 34.699897 -117.425665 262 14008ft 309kts
16-Sep-20 20:59 34.690705 -117.512986 262 14000ft 315kts
16-Sep-20 21:00 34.679420 -117.618308 262 13992ft 314kts
16-Sep-20 21:01 34.668096 -117.726199 262 13985ft 326kts
16-Sep-20 21:02 34.656448 -117.834422 262 13983ft 315kts
16-Sep-20 21:03 34.645149 -117.939212 261 13324ft 311kts
16-Sep-20 21:04 34.633958 -118.040664 261 12466ft 286kts
16-Sep-20 21:05 34.617218 -118.130798 253 11570ft 269kts
16-Sep-20 21:06 34.597521 -118.216961 253 10358ft 260kts
16-Sep-20 21:07 34.579018 -118.299267 253 9274ft 235kts
16-Sep-20 21:08 34.562018 -118.375039 253 8106ft 227kts
16-Sep-20 21:09 34.523222 -118.430730 213 7423ft 226kts
16-Sep-20 21:10 34.470106 -118.471306 212 6280ft 224kts
16-Sep-20 21:11 34.419401 -118.509037 212 6026ft 222kts
16-Sep-20 21:12 34.368435 -118.546863 213 6006ft 223kts
16-Sep-20 21:13 34.314953 -118.585984 205 5996ft 225kts
16-Sep-20 21:14 34.253992 -118.577328 146 5129ft 228kts
16-Sep-20 21:15 34.218435 -118.522992 126 3985ft 195kts
16-Sep-20 21:16 34.198939 -118.468524 92 3095ft 169kts
16-Sep-20 21:17 34.198426 -118.415358 90 1692ft 160kts
16-Sep-20 21:18 34.197869 -118.367051 88 751ft 138kts
16-Sep-20 21:19 34.197619 -118.351787 119 729ft 11kts
16-Sep-20 21:20 34.196843 -118.351502 180 729ft 0kts
16-Sep-20 21:21 34.196798 -118.351501 180 729ft 0kts
16-Sep-20 21:22 34.196798 -118.351501 180 729ft 0kts
16-Sep-20 21:23 34.196798 -118.351501 180 729ft 0kts
16-Sep-20 21:24 34.196798 -118.351501 180 729ft 0kts
16-Sep-20 21:25 34.196798 -118.351501 180 729ft 0kts

Navigation Log

Ident Type
Flight plan parsing failed, navigation log unavailable